Time;durP1;ratioP1;P1;durP2;ratioP2;P2;SDS_P1;SDS_P2;PMS_P1;PMS_P2;Temp;Humidity;BMP_temperature;BMP_pressure;BME280_temperature;BME280_humidity;BME280_pressure;Samples;Min_cycle;Max_cycle;Signal;HPM_P1;HPM_P2
2021/05/28 15:13:48;;;;;;;1.93;1.83;;;34.40;32.60;;;;;;6184089;22;20450;-86
2021/05/28 15:16:15;;;;;;;2.17;1.97;;;34.70;31.40;;;;;;6180753;23;20542;-85
2021/05/28 15:18:41;;;;;;;2.13;1.93;;;32.90;34.30;;;;;;6180499;23;20399;-85
2021/05/28 15:29:01;;;;;;;1.83;1.73;;;31.80;34.70;;;;;;6237082;22;20427;-89
2021/05/28 15:31:28;;;;;;;2.40;1.93;;;33.10;30.30;;;;;;6233284;23;20519;-89
2021/05/28 15:34:01;;;;;;;2.60;2.40;;;33.60;32.50;;;;;;6209260;23;20445;-89
2021/05/28 15:36:52;;;;;;;1.80;1.70;;;34.40;31.30;;;;;;6210677;23;20408;-86
2021/05/28 15:49:40;;;;;;;4.63;2.60;;;33.90;29.20;;;;;;6242426;23;20425;-92
2021/05/28 15:52:06;;;;;;;3.53;1.73;;;28.80;34.40;;;;;;6210866;23;20390;-93
2021/05/28 15:54:32;;;;;;;5.47;2.80;;;31.20;34.50;;;;;;6211617;23;20417;-95
2021/05/28 15:56:58;;;;;;;18.93;15.33;;;32.70;32.70;;;;;;6213555;23;20493;-94
2021/05/28 15:59:23;;;;;;;5.30;4.77;;;33.20;31.60;;;;;;6214762;23;20240;-93
2021/05/28 16:01:50;;;;;;;3.50;2.67;;;32.50;31.80;;;;;;6209808;23;20397;-95
2021/05/28 16:04:16;;;;;;;5.10;3.30;;;32.10;32.80;;;;;;6210225;23;20276;-93
2021/05/28 16:06:42;;;;;;;2.07;1.97;;;31.00;33.40;;;;;;6212534;23;20408;-94
2021/05/28 16:09:07;;;;;;;3.80;3.50;;;31.20;34.80;;;;;;6211026;23;20169;-96
2021/05/28 16:11:33;;;;;;;3.70;3.40;;;30.90;33.80;;;;;;6210591;23;20587;-93
2021/05/28 16:14:01;;;;;;;2.73;2.20;;;32.40;32.00;;;;;;6210729;23;20163;-95
2021/05/28 16:16:46;;;;;;;2.37;2.23;;;32.30;32.30;;;;;;6214076;23;20516;-95
2021/05/28 16:19:12;;;;;;;4.00;2.87;;;31.00;33.80;;;;;;6228962;23;20828;-94
2021/05/28 16:21:39;;;;;;;7.20;6.17;;;32.20;33.00;;;;;;6211300;23;20659;-94
2021/05/28 16:24:06;;;;;;;1.93;1.60;;;33.10;31.70;;;;;;6211931;23;20174;-96
2021/05/28 16:26:32;;;;;;;7.50;6.23;;;33.90;30.20;;;;;;6220266;23;20485;-93
2021/05/28 16:28:58;;;;;;;2.40;1.90;;;31.30;32.50;;;;;;6217134;23;20410;-91
2021/05/28 16:31:24;;;;;;;2.17;2.00;;;33.10;32.50;;;;;;6213913;23;20476;-95
2021/05/28 16:33:50;;;;;;;2.20;2.10;;;31.30;32.00;;;;;;6215530;23;20478;-94
2021/05/28 16:36:15;;;;;;;2.43;2.00;;;26.30;38.80;;;;;;6212627;23;20159;-96
2021/05/28 16:38:41;;;;;;;2.07;1.97;;;26.50;41.30;;;;;;6212508;23;20190;-91
2021/05/28 16:41:07;;;;;;;3.23;2.13;;;28.50;38.70;;;;;;6238463;23;20167;-94
2021/05/28 16:43:33;;;;;;;2.10;1.90;;;26.80;37.30;;;;;;6218801;23;20194;-93
2021/05/28 16:45:59;;;;;;;2.13;2.00;;;24.80;41.20;;;;;;6215098;23;20187;-95
2021/05/28 16:48:24;;;;;;;2.00;1.90;;;25.20;41.80;;;;;;6200894;23;20179;-92
2021/05/28 16:50:59;;;;;;;1.90;1.77;;;25.80;41.10;;;;;;6206187;23;20797;-94
2021/05/28 16:53:30;;;;;;;2.00;1.90;;;27.70;40.00;;;;;;6180964;23;20258;-90
2021/05/28 16:55:56;;;;;;;2.43;2.00;;;27.70;38.70;;;;;;6181623;23;20410;-91
2021/05/28 16:58:23;;;;;;;1.97;1.77;;;30.20;36.20;;;;;;6179158;23;20391;-91
2021/05/28 17:00:50;;;;;;;2.00;1.90;;;31.20;34.40;;;;;;6180793;23;20397;-92
2021/05/28 17:03:16;;;;;;;1.70;1.53;;;32.20;32.60;;;;;;6206447;23;20496;-90
2021/05/28 17:05:43;;;;;;;1.90;1.80;;;31.80;31.90;;;;;;6179965;23;20720;-92
2021/05/28 17:08:09;;;;;;;2.10;1.83;;;32.00;32.40;;;;;;6179059;23;20402;-92
2021/05/28 17:10:35;;;;;;;3.43;2.00;;;30.40;33.30;;;;;;6180610;23;20710;-92
2021/05/28 17:13:00;;;;;;;1.80;1.70;;;29.30;35.50;;;;;;6181442;23;20395;-92
2021/05/28 17:15:28;;;;;;;2.13;1.90;;;30.00;34.90;;;;;;6179963;23;20950;-91
2021/05/28 17:17:57;;;;;;;1.50;1.40;;;30.10;34.90;;;;;;6181164;23;20169;-91
2021/05/28 17:20:24;;;;;;;3.60;1.40;;;30.60;34.20;;;;;;6180169;23;20935;-94
2021/05/28 17:22:50;;;;;;;1.50;1.40;;;30.20;33.40;;;;;;6184563;23;20521;-93
2021/05/28 17:25:18;;;;;;;2.10;1.90;;;29.90;34.50;;;;;;6183462;23;20414;-94
2021/05/28 17:27:59;;;;;;;1.83;1.73;;;30.60;33.50;;;;;;6184677;23;20402;-94
2021/05/28 17:30:27;;;;;;;2.43;2.23;;;30.90;34.20;;;;;;6213587;23;20397;-93
2021/05/28 17:32:56;;;;;;;2.20;1.40;;;28.70;35.30;;;;;;6184807;23;20478;-95
2021/05/28 17:35:42;;;;;;;1.93;1.73;;;28.60;36.20;;;;;;6212796;23;20156;-93
2021/05/28 17:38:12;;;;;;;2.90;1.70;;;28.30;36.30;;;;;;6188598;23;20406;-93
2021/05/28 17:40:38;;;;;;;2.30;1.70;;;27.80;37.20;;;;;;6176905;23;20407;-93
2021/05/28 17:43:05;;;;;;;3.03;1.73;;;26.50;38.90;;;;;;6212648;23;20434;-93
2021/05/28 17:45:32;;;;;;;2.40;2.17;;;25.50;41.60;;;;;;6184638;23;20395;-92
2021/05/28 17:48:34;;;;;;;2.23;2.07;;;25.50;41.50;;;;;;6229134;23;20416;-93
2021/05/28 17:51:01;;;;;;;2.20;2.10;;;25.80;42.30;;;;;;6247949;23;20409;-94
2021/05/28 17:53:26;;;;;;;2.13;1.93;;;26.30;41.90;;;;;;6214854;23;20394;-94
2021/05/28 17:55:52;;;;;;;2.63;2.40;;;26.80;40.40;;;;;;6212783;23;20713;-93
2021/05/28 17:58:18;;;;;;;2.50;1.90;;;24.50;42.10;;;;;;6211625;23;20600;-93
2021/05/28 18:00:44;;;;;;;2.00;1.90;;;22.00;46.40;;;;;;6211769;23;20163;-93
2021/05/28 18:03:24;;;;;;;2.30;1.90;;;20.40;50.00;;;;;;6212252;23;20273;-93
2021/05/28 18:05:51;;;;;;;2.20;2.00;;;18.90;53.70;;;;;;6228276;23;20166;-93
2021/05/28 18:08:18;;;;;;;2.60;2.40;;;17.80;56.90;;;;;;6211709;23;20404;-94
2021/05/28 18:10:44;;;;;;;2.27;2.07;;;17.10;59.00;;;;;;6212161;23;20229;-93
2021/05/28 18:13:10;;;;;;;2.40;2.30;;;16.90;59.60;;;;;;6212324;23;20441;-91
2021/05/28 18:15:36;;;;;;;2.30;2.20;;;16.70;61.30;;;;;;6214198;23;20728;-91
2021/05/28 18:18:02;;;;;;;1.80;1.70;;;16.50;64.40;;;;;;6211233;23;20842;-92
2021/05/28 18:20:47;;;;;;;2.27;2.07;;;16.40;66.00;;;;;;6210631;23;20390;-93
2021/05/28 18:23:16;;;;;;;1.80;1.70;;;16.30;68.40;;;;;;6213641;23;20245;-93
2021/05/28 18:25:42;;;;;;;2.20;2.00;;;16.40;68.90;;;;;;6210654;23;20388;-92
2021/05/28 18:28:08;;;;;;;2.43;2.00;;;16.20;69.80;;;;;;6210576;23;20769;-92
2021/05/28 18:30:34;;;;;;;2.53;1.80;;;16.30;71.30;;;;;;6211468;23;20405;-94
2021/05/28 18:33:00;;;;;;;2.20;2.00;;;16.20;71.60;;;;;;6211049;23;20194;-93
2021/05/28 18:35:29;;;;;;;1.87;1.77;;;15.90;74.80;;;;;;6207289;23;20819;-94
2021/05/28 18:37:56;;;;;;;2.93;1.90;;;15.70;78.30;;;;;;6204877;23;20406;-93
2021/05/28 18:40:24;;;;;;;2.10;2.00;;;15.50;81.30;;;;;;6210990;23;20435;-92
2021/05/28 18:42:51;;;;;;;2.03;1.87;;;15.40;82.10;;;;;;6211775;23;20412;-91
2021/05/28 18:45:18;;;;;;;2.00;1.90;;;15.20;86.10;;;;;;6209992;23;20452;-91
2021/05/28 18:47:46;;;;;;;2.43;2.10;;;15.10;88.50;;;;;;6236942;23;20717;-90
2021/05/28 18:50:15;;;;;;;3.37;2.37;;;15.00;90.60;;;;;;6210570;23;20413;-90
2021/05/28 18:52:42;;;;;;;2.20;2.00;;;14.80;92.70;;;;;;6209727;23;20503;-90
2021/05/28 18:55:11;;;;;;;2.13;1.77;;;14.70;93.50;;;;;;6210125;23;20393;-90
2021/05/28 18:57:37;;;;;;;2.70;2.30;;;14.60;94.40;;;;;;6209933;23;20898;-90
2021/05/28 19:00:08;;;;;;;3.00;1.77;;;14.60;95.00;;;;;;6209608;23;20535;-90
2021/05/28 19:02:37;;;;;;;2.10;1.70;;;14.60;95.30;;;;;;6208895;23;20428;-91
2021/05/28 19:05:05;;;;;;;2.00;1.90;;;14.50;96.20;;;;;;6209252;23;20398;-89
2021/05/28 19:07:30;;;;;;;2.30;2.20;;;14.40;96.90;;;;;;6208906;23;20409;-90
2021/05/28 19:09:56;;;;;;;4.40;2.43;;;14.30;97.70;;;;;;6209824;23;20402;-90
2021/05/28 19:12:22;;;;;;;3.73;2.10;;;14.30;97.90;;;;;;6185397;23;20191;-90
2021/05/28 19:14:47;;;;;;;3.90;2.03;;;14.30;98.10;;;;;;6208099;23;20166;-91
2021/05/28 19:17:15;;;;;;;2.20;2.03;;;14.40;98.50;;;;;;6207625;23;20205;-91
2021/05/28 19:19:43;;;;;;;2.93;2.73;;;14.30;98.70;;;;;;6210132;23;20233;-91
2021/05/28 19:22:11;;;;;;;3.90;1.80;;;14.20;99.90;;;;;;6207332;23;20852;-91
2021/05/28 19:24:37;;;;;;;2.97;2.47;;;14.20;99.90;;;;;;6208847;23;20516;-91
2021/05/28 19:27:03;;;;;;;2.33;2.13;;;14.20;99.90;;;;;;6209903;23;20397;-91
2021/05/28 19:29:29;;;;;;;2.50;2.30;;;14.20;99.90;;;;;;6208542;23;20158;-91
2021/05/28 19:31:54;;;;;;;3.90;2.30;;;14.20;99.90;;;;;;6207789;23;20451;-92
2021/05/28 19:34:20;;;;;;;2.93;2.60;;;14.10;99.90;;;;;;6234322;23;20433;-91
2021/05/28 19:36:46;;;;;;;2.80;2.60;;;14.10;99.90;;;;;;6235449;23;20161;-91
2021/05/28 19:39:11;;;;;;;2.60;2.40;;;14.10;99.90;;;;;;6234960;23;20165;-91
2021/05/28 19:41:37;;;;;;;5.40;2.37;;;14.00;99.90;;;;;;6207822;23;20159;-92
2021/05/28 19:44:09;;;;;;;4.13;2.77;;;13.90;99.90;;;;;;6207387;23;20163;-91
2021/05/28 19:46:36;;;;;;;2.80;2.60;;;13.90;99.90;;;;;;6231367;23;20398;-92
2021/05/28 19:49:03;;;;;;;2.80;2.60;;;13.80;99.90;;;;;;6207810;23;20416;-91
2021/05/28 19:51:30;;;;;;;2.70;2.50;;;13.70;99.90;;;;;;6207272;23;20911;-91
2021/05/28 19:55:41;;;;;;;4.40;3.20;;;13.70;99.90;;;;;;6205717;23;20834;-91
2021/05/28 19:56:47;;;;;;;3.80;2.87;;;13.70;99.90;;;;;;6234130;23;20750;-91
2021/05/28 19:59:15;;;;;;;3.00;2.80;;;13.60;99.90;;;;;;6206616;23;20454;-91
2021/05/28 20:01:40;;;;;;;2.40;2.20;;;13.70;99.90;;;;;;6208848;23;20488;-91
2021/05/28 20:04:07;;;;;;;3.40;2.70;;;13.70;99.90;;;;;;6211243;23;20504;-92
2021/05/28 20:06:36;;;;;;;2.90;2.70;;;13.60;99.90;;;;;;6213148;23;20170;-91
2021/05/28 20:09:08;;;;;;;3.20;2.90;;;13.70;99.90;;;;;;6211602;23;20425;-92
2021/05/28 20:11:42;;;;;;;3.30;2.50;;;13.60;99.90;;;;;;6210779;23;20393;-91
2021/05/28 20:14:28;;;;;;;2.70;2.60;;;13.50;99.90;;;;;;6212935;23;20413;-91
2021/05/28 20:16:57;;;;;;;2.80;2.33;;;13.50;99.90;;;;;;6211270;23;20397;-92
2021/05/28 20:19:31;;;;;;;3.10;2.80;;;13.50;99.90;;;;;;6238395;23;20396;-91
2021/05/28 20:21:57;;;;;;;3.10;2.80;;;13.40;99.90;;;;;;6210633;23;20404;-92
2021/05/28 20:24:22;;;;;;;3.67;3.37;;;13.40;99.90;;;;;;6209731;23;20173;-92
2021/05/28 20:26:56;;;;;;;2.97;2.77;;;13.40;99.90;;;;;;6237086;23;20344;-91
2021/05/28 20:29:21;;;;;;;3.00;2.80;;;13.40;99.90;;;;;;6211493;23;20937;-90
2021/05/28 20:31:47;;;;;;;3.07;2.77;;;13.40;99.90;;;;;;6208483;23;20384;-91
2021/05/28 20:34:22;;;;;;;3.07;2.87;;;13.40;99.90;;;;;;6208071;23;20197;-92
2021/05/28 20:36:51;;;;;;;3.43;3.00;;;13.30;99.90;;;;;;6237946;23;20179;-92
2021/05/28 20:39:16;;;;;;;3.47;3.17;;;13.30;99.90;;;;;;6234661;23;20484;-93
2021/05/28 20:41:42;;;;;;;2.33;2.23;;;13.30;99.90;;;;;;6208827;23;20498;-91
2021/05/28 20:44:08;;;;;;;3.60;2.67;;;13.40;99.90;;;;;;6209746;23;20163;-92
2021/05/28 20:46:35;;;;;;;2.77;2.53;;;13.40;99.90;;;;;;6208868;23;20191;-93
2021/05/28 20:49:01;;;;;;;3.10;2.90;;;13.30;99.90;;;;;;6210310;23;20401;-94
2021/05/28 20:51:37;;;;;;;4.10;3.00;;;13.30;99.90;;;;;;6208163;23;20411;-94
2021/05/28 20:54:03;;;;;;;4.70;3.40;;;13.40;99.90;;;;;;6212677;23;20449;-95
2021/05/28 20:58:54;;;;;;;3.07;2.77;;;13.30;99.90;;;;;;6238034;23;20393;-92
2021/05/28 21:01:21;;;;;;;2.70;2.50;;;13.30;99.90;;;;;;6240759;23;20159;-92
2021/05/28 21:03:53;;;;;;;3.13;2.90;;;13.40;99.90;;;;;;6210360;23;20396;-93
2021/05/28 21:06:19;;;;;;;3.63;2.90;;;13.50;99.90;;;;;;6210136;23;20469;-93
2021/05/28 21:08:45;;;;;;;2.70;2.50;;;13.50;99.90;;;;;;6207915;23;20850;-92
2021/05/28 21:11:14;;;;;;;3.30;2.73;;;13.40;99.90;;;;;;6213496;23;20454;-94
2021/05/28 21:13:40;;;;;;;2.80;2.60;;;13.40;99.90;;;;;;6212645;23;20282;-92
2021/05/28 21:16:08;;;;;;;2.70;2.50;;;13.40;99.90;;;;;;6208462;23;20389;-92
2021/05/28 21:18:34;;;;;;;3.30;3.00;;;13.50;99.90;;;;;;6206610;23;20394;-90
2021/05/28 21:21:02;;;;;;;3.07;2.77;;;13.40;99.90;;;;;;6208689;23;20819;-91
2021/05/28 21:23:27;;;;;;;2.70;2.50;;;13.30;99.90;;;;;;6207084;23;20183;-91
2021/05/28 21:25:53;;;;;;;3.00;2.80;;;13.20;99.90;;;;;;6210580;23;20724;-93
2021/05/28 21:28:19;;;;;;;4.67;2.83;;;13.10;99.90;;;;;;6212085;23;20842;-93
2021/05/28 21:30:44;;;;;;;2.90;2.70;;;13.00;99.90;;;;;;6210207;23;20158;-92
2021/05/28 21:33:10;;;;;;;2.90;2.70;;;12.90;99.90;;;;;;6205662;23;20743;-91
2021/05/28 21:35:36;;;;;;;2.57;2.37;;;12.80;99.90;;;;;;6210193;23;20672;-91
2021/05/28 21:38:03;;;;;;;3.10;2.90;;;12.80;99.90;;;;;;6210486;23;20549;-92
2021/05/28 21:40:29;;;;;;;3.27;2.97;;;12.80;99.90;;;;;;6208894;23;20401;-91
2021/05/28 21:42:55;;;;;;;3.30;3.10;;;12.80;99.90;;;;;;6208859;23;20489;-92
2021/05/28 21:45:21;;;;;;;2.83;2.63;;;12.70;99.90;;;;;;6208808;23;20914;-92
2021/05/28 21:47:53;;;;;;;3.40;3.10;;;12.70;99.90;;;;;;6209159;23;20167;-94
2021/05/28 21:50:19;;;;;;;3.50;3.30;;;12.70;99.90;;;;;;6208518;23;20209;-92
2021/05/28 21:52:47;;;;;;;3.07;2.87;;;12.70;99.90;;;;;;6206668;23;20441;-93
2021/05/28 21:55:23;;;;;;;4.10;3.00;;;12.60;99.90;;;;;;6208114;23;20397;-92
2021/05/28 21:57:49;;;;;;;3.30;3.10;;;12.50;99.90;;;;;;6205627;23;20820;-93
2021/05/28 22:00:22;;;;;;;2.70;2.50;;;12.50;99.90;;;;;;6205950;23;20416;-92
2021/05/28 22:02:51;;;;;;;3.43;3.20;;;12.50;99.90;;;;;;6208284;23;20155;-92
2021/05/28 22:05:21;;;;;;;3.13;2.83;;;12.50;99.90;;;;;;6237416;23;20431;-90
2021/05/28 22:07:47;;;;;;;4.10;3.10;;;12.50;99.90;;;;;;6236942;23;20444;-92
2021/05/28 22:10:14;;;;;;;3.20;2.97;;;12.50;99.90;;;;;;6230052;23;20465;-92
2021/05/28 22:12:39;;;;;;;3.20;3.00;;;12.40;99.90;;;;;;6185491;23;20453;-92
2021/05/28 22:15:08;;;;;;;3.37;3.07;;;12.30;99.90;;;;;;6210917;23;20872;-92
2021/05/28 22:17:34;;;;;;;4.37;3.57;;;12.20;99.90;;;;;;6210898;23;20512;-92
2021/05/28 22:20:03;;;;;;;4.00;3.70;;;12.10;99.90;;;;;;6210477;23;20405;-92
2021/05/28 22:22:29;;;;;;;3.70;3.43;;;12.10;99.90;;;;;;6208312;23;20389;-92
2021/05/28 22:24:54;;;;;;;6.87;3.80;;;12.10;99.90;;;;;;6209001;23;21170;-92
2021/05/28 22:27:24;;;;;;;3.47;3.10;;;12.10;99.90;;;;;;6207719;23;20159;-93
2021/05/28 22:35:30;;;;;;;3.37;3.10;;;12.00;99.90;;;;;;6112855;23;20838;-92
2021/05/28 22:37:55;;;;;;;3.27;3.07;;;12.00;99.90;;;;;;6148222;23;20404;-91
2021/05/28 22:40:21;;;;;;;3.70;2.80;;;12.10;99.90;;;;;;6208100;23;20151;-93
2021/05/28 22:42:49;;;;;;;3.03;2.83;;;12.20;99.90;;;;;;6208939;23;20699;-93
2021/05/28 22:45:29;;;;;;;3.60;3.30;;;12.20;99.90;;;;;;6204892;23;20147;-93
2021/05/28 22:48:00;;;;;;;3.17;2.97;;;12.20;99.90;;;;;;6211097;23;20430;-93
2021/05/28 22:50:49;;;;;;;3.00;2.80;;;12.30;99.90;;;;;;6208370;23;20401;-94
2021/05/28 22:53:17;;;;;;;3.43;3.13;;;12.30;99.90;;;;;;6206523;23;20437;-93
2021/05/28 22:55:44;;;;;;;5.40;3.30;;;12.10;99.90;;;;;;6210404;23;20390;-93
2021/05/28 22:58:10;;;;;;;3.37;3.17;;;12.10;99.90;;;;;;6236622;23;20470;-93
2021/05/28 23:00:36;;;;;;;3.40;3.10;;;12.00;99.90;;;;;;6211084;23;20397;-93
2021/05/28 23:03:02;;;;;;;5.90;3.27;;;11.90;99.90;;;;;;6208523;23;20406;-93
2021/05/28 23:05:27;;;;;;;3.37;3.10;;;12.00;99.90;;;;;;6207224;23;20162;-92
2021/05/28 23:07:53;;;;;;;3.20;3.00;;;12.00;99.90;;;;;;6209430;23;20169;-92
2021/05/28 23:12:46;;;;;;;3.30;3.00;;;11.70;99.90;;;;;;6238104;23;20186;-92
2021/05/28 23:15:19;;;;;;;4.27;2.90;;;11.50;99.90;;;;;;6211413;23;20182;-93
2021/05/28 23:17:46;;;;;;;3.23;3.00;;;11.40;99.90;;;;;;6211730;23;20414;-93
2021/05/28 23:20:12;;;;;;;4.60;3.60;;;11.40;99.90;;;;;;6211414;23;20443;-92
2021/05/28 23:22:38;;;;;;;3.40;3.10;;;11.40;99.90;;;;;;6211574;23;20440;-93
2021/05/28 23:25:05;;;;;;;4.03;3.33;;;11.50;99.90;;;;;;6211362;23;20460;-93
2021/05/28 23:27:31;;;;;;;2.97;2.77;;;11.60;99.90;;;;;;6210010;23;20155;-93
2021/05/28 23:29:57;;;;;;;3.17;2.40;;;11.60;99.90;;;;;;6210554;23;20421;-92
2021/05/28 23:32:23;;;;;;;2.90;2.70;;;11.60;99.90;;;;;;6210798;23;20426;-93
2021/05/28 23:34:49;;;;;;;3.50;3.00;;;11.60;99.90;;;;;;6209434;23;20484;-94
2021/05/28 23:37:16;;;;;;;3.00;2.80;;;11.60;99.90;;;;;;6209618;23;20619;-93
2021/05/28 23:39:41;;;;;;;4.20;2.90;;;11.50;99.90;;;;;;6210414;23;20409;-94
2021/05/28 23:42:11;;;;;;;3.00;2.80;;;11.50;99.90;;;;;;6209642;23;20390;-93
2021/05/28 23:44:56;;;;;;;3.33;3.03;;;11.50;99.90;;;;;;6210348;23;20163;-92
2021/05/28 23:47:21;;;;;;;3.37;3.00;;;11.50;99.90;;;;;;6209416;23;20528;-92
2021/05/28 23:49:51;;;;;;;3.53;3.33;;;11.50;99.90;;;;;;6210986;23;20430;-91
2021/05/28 23:52:17;;;;;;;2.80;2.60;;;11.40;99.90;;;;;;6206757;23;20187;-93
2021/05/28 23:54:42;;;;;;;5.00;2.77;;;11.40;99.90;;;;;;6209789;23;20918;-92
2021/05/28 23:57:08;;;;;;;3.40;3.10;;;11.30;99.90;;;;;;6209654;23;20159;-93
2021/05/28 23:59:33;;;;;;;4.97;3.53;;;11.30;99.90;;;;;;6209732;23;20163;-93
